• Join FlightAware (Why Join?)
  • Login
  • US Flag 
03:34AM EDT


 

Airport Tracker/Info


-or-


 

Live Flight TrackerFlight Track Log ✈ FDX1304 ✈ 17-Jan-2014 ✈ KSBN - KMEM

Flight Track Log - Related Links

Times and Time Zones

All times are in EST time to prevent confusion due to time zone crossing. See the FDX1304 flight status page for this flight to view local times or setup timezone preferences in your user account.

Time Position Orientation Groundspeed Altitude Reporting Facility
EST Latitude Longitude Course Direction KTS MPH feet Rate Location/Type
12:38AM 41.6361 -86.4430 197° South 269 310 6,700  Level FlightAware ADS-B (KMDW)
12:38AM 41.6075 -86.4542 196° South 274 315 7,700 3,360 Climbing FlightAware ADS-B (KMDW)
12:38AM 41.5771 -86.4662 196° South 282 325 9,200 2,880 Climbing FlightAware ADS-B (KMDW)
12:39AM 41.5254 -86.4860 196° South 312 359 10,800 1,980 Climbing FlightAware ADS-B (KMDW)
12:40AM 41.4565 -86.5117 196° South 364 419 12,000 2,160 Climbing FlightAware ADS-B (KMDW)
12:41AM 41.3936 -86.5351 196° South 371 427 13,900 2,760 Climbing FlightAware ADS-B (KMDW)
12:41AM 41.3229 -86.5614 196° South 385 443 15,700 2,520 Climbing FlightAware ADS-B (KMDW)
12:42AM 41.2510 -86.5882 196° South 402 463 17,400 2,580 Climbing FlightAware ADS-B (KMDW)
12:43AM 41.1762 -86.6158 196° South 412 474 19,300 2,340 Climbing FlightAware ADS-B (KMDW)
12:43AM 41.1009 -86.6439 196° South 437 503 20,600 1,920 Climbing FlightAware ADS-B (KMDW)
12:44AM 41.0175 -86.6747 196° South 453 521 22,000 2,100 Climbing FlightAware ADS-B (KMDW)
12:45AM 40.9342 -86.7051 195° South 466 536 23,500 2,100 Climbing FlightAware ADS-B (KMDW)
12:45AM 40.8571 -86.7333 195° South 488 562 24,700 1,920 Climbing FlightAware ADS-B (KMDW)
12:46AM 40.7521 -86.7723 196° South 508 585 26,200 1,860 Climbing FlightAware ADS-B (KMDW)
12:47AM 40.6829 -86.7974 195° South 516 594 27,500 1,920 Climbing FlightAware ADS-B (KMDW)
12:47AM 40.5764 -86.8362 196° South 525 604 28,700 2,460 Climbing FlightAware ADS-B (KMDW)
12:48AM 40.4704 -86.8744 195° South 517 595 30,800 3,000 Climbing FlightAware ADS-B (KMDW)
12:49AM 40.3802 -86.9072 196° South 501 577 33,000 3,060 Climbing FlightAware ADS-B (KMDW)
12:49AM 40.2923 -86.9392 196° South 489 563 34,900 2,220 Climbing FlightAware ADS-B (KMDW)
12:50AM 40.2031 -86.9713 195° South 482 555 36,000 780 Climbing FlightAware ADS-B (KMDW)
12:51AM 40.1168 -87.0023 195° South 479 551 36,000  Level FlightAware ADS-B (KMDW)
12:52AM 40.0069 -87.0413 195° South 481 554 36,000  Level FlightAware ADS-B (KMDW)
12:52AM 39.9024 -87.0789 195° South 485 558 36,000  Level FlightAware ADS-B (KMDW)
12:53AM 39.8162 -87.1090 195° South 487 560 36,000  Level FlightAware ADS-B (KMDW)
12:54AM 39.7680 -87.1267 196° South 487 560 36,000  Level FlightAware ADS-B (KMDW)
12:54AM 39.6516 -87.1676 195° South 488 562 36,000  Level FlightAware ADS-B (KMDW)
12:55AM 39.5614 -87.1992 195° South 488 562 36,000  Level FlightAware ADS-B (KMDW)
12:56AM 39.4859 -87.2261 195° South 488 562 36,000  Level FlightAware ADS-B (KMDW)
12:57AM 39.2493 -87.3089 195° South 489 563 36,000  Level FlightAware ADS-B (KMDW)
12:58AM 39.1622 -87.3400 195° South 488 562 36,000  Level Chicago Center
12:59AM 39.0408 -87.3806 195° South 488 562 36,000  Level Indianapolis Center
01:00AM 38.9100 -87.4261 195° South 485 558 36,000  Level Indianapolis Center
01:01AM 38.7794 -87.4722 195° South 487 560 36,000  Level Indianapolis Center
01:02AM 38.6483 -87.5161 195° South 487 560 36,000  Level Indianapolis Center
01:03AM 38.5181 -87.5617 195° South 487 560 36,000  Level Indianapolis Center
01:04AM 38.3869 -87.6067 195° South 489 563 36,000  Level Indianapolis Center
01:05AM 38.2569 -87.6503 195° South 486 559 36,000  Level Indianapolis Center
01:06AM 38.1253 -87.6942 195° South 489 563 36,000  Level Indianapolis Center
01:07AM 37.9933 -87.7392 195° South 490 564 36,000  Level Indianapolis Center
01:08AM 37.8842 -87.8256 212° Southwest 464 534 36,000  Level Indianapolis Center
01:09AM 37.8003 -87.9456 229° Southwest 453 521 36,000  Level Indianapolis Center
01:10AM 37.7142 -88.0700 229° Southwest 450 518 36,000  Level Indianapolis Center
01:11AM 37.6336 -88.1883 229° Southwest 442 509 36,000  Level Indianapolis Center
01:12AM 37.5544 -88.3014 229° Southwest 446 513 36,000  Level Indianapolis Center
01:13AM 37.4664 -88.4242 228° Southwest 448 516 36,000  Level Indianapolis Center
01:14AM 37.3672 -88.5239 219° Southwest 454 522 36,000  Level Indianapolis Center
01:15AM 37.2625 -88.6069 212° Southwest 463 533 36,000  Level Indianapolis Center
01:16AM 37.1489 -88.6978 213° Southwest 459 528 36,000  Level Indianapolis Center
01:17AM 37.0394 -88.7856 213° Southwest 461 531 36,000  Level Indianapolis Center
01:18AM 36.9286 -88.8742 213° Southwest 466 536 36,000  Level Indianapolis Center
01:20AM 36.7800 -88.9919 212° Southwest 465 535 36,000 -480 Level Memphis Center
01:21AM 36.6697 -89.0800 213° Southwest 469 540 35,000 -2,220 Descending Memphis Center
01:22AM 36.5606 -89.1664 212° Southwest 466 536 31,600 -3,840 Descending Memphis Center
01:23AM 36.4383 -89.2619 212° Southwest 472 543 27,400 -3,720 Descending Memphis Center
01:24AM 36.3264 -89.3489 212° Southwest 472 543 24,200 -3,060 Descending Memphis Center
01:25AM 36.2194 -89.4325 212° Southwest 462 532 21,300 -2,880 Descending Memphis Center
01:26AM 36.1194 -89.5100 212° Southwest 433 498 18,500 -2,760 Descending Memphis Center
01:27AM 36.0206 -89.5869 212° Southwest 423 487 15,800 -2,700 Descending Memphis Center
01:28AM 35.9258 -89.6606 212° Southwest 409 471 13,100 -2,580 Descending Memphis Center
01:29AM 35.8350 -89.7297 212° Southwest 390 449 10,700 -1,500 Descending Memphis Center
01:30AM 35.7592 -89.7872 212° Southwest 321 369 10,200 -540 Descending Memphis Center
01:31AM 35.6944 -89.8281 207° Southwest 275 316 9,700 -720 Descending Memphis Center
01:32AM 35.6233 -89.8419 189° South 286 329 8,800 -1,200 Descending Memphis Center
01:33AM 35.5472 -89.8589 190° South 279 321 7,400 -1,440 Descending Memphis Center
01:34AM 35.4703 -89.8611 181° South 274 315 6,000 -720 Descending Memphis Center
01:35AM 35.3925 -89.8514 174° South 278 320 6,000  Level Memphis Center
01:36AM 35.3161 -89.8517 180° South 274 315 6,000  Level Memphis Center
01:37AM 35.2383 -89.8506 179° South 275 316 6,000 -60 Level Memphis Center
01:38AM 35.1614 -89.8500 180° South 274 315 5,900  Descending Memphis Center
01:39AM 35.0922 -89.8478 178° South 256 295 6,000 -660 Climbing Memphis Center
01:40AM 35.0258 -89.8458 179° South 241 277 4,600 -1,740 Descending Memphis Center
01:41AM 34.9622 -89.8456 180° South 233 268 2,600 -1,320 Descending Memphis Center
01:42AM 34.9192 -89.8800 213° Southwest 211 243 2,000 -360 Descending Memphis Center
01:42AM 34.9000 -89.9167 237° Southwest 166 191 2,100 60 Climbing KMEM
01:43AM 34.9000 -89.9500 270° West 167 192 2,100 -60 Level KMEM
01:44AM 34.9500 -89.9667 345° North 162 186 2,000 -420 Descending KMEM
01:45AM 34.9833 -89.9667 360° North 113 130 1,300 -720 Descending KMEM
01:46AM 35.0167 -89.9667 360° North 116 133 600 -720 Descending KMEM
01:49AM 35.0333 -89.9667 345° North  Level FlightAware Approximate